sensor_id;sensor_type;location;lat;lon;timestamp;P1;durP1;ratioP1;P2;durP2;ratioP2
21270;SDS011;10795;50.796;3.860;2024-03-02T00:01:07;1.15;;;0.20;;
21270;SDS011;10795;50.796;3.860;2024-03-02T00:03:35;1.25;;;0.38;;
21270;SDS011;10795;50.796;3.860;2024-03-02T00:06:02;0.85;;;0.43;;
21270;SDS011;10795;50.796;3.860;2024-03-02T00:08:30;1.73;;;0.40;;
21270;SDS011;10795;50.796;3.860;2024-03-02T00:11:00;2.08;;;0.40;;
21270;SDS011;10795;50.796;3.860;2024-03-02T00:13:30;1.58;;;0.38;;
21270;SDS011;10795;50.796;3.860;2024-03-02T00:15:58;1.25;;;0.55;;
21270;SDS011;10795;50.796;3.860;2024-03-02T00:18:32;0.93;;;0.32;;
21270;SDS011;10795;50.796;3.860;2024-03-02T00:21:00;0.30;;;0.30;;
21270;SDS011;10795;50.796;3.860;2024-03-02T00:23:31;1.58;;;0.60;;
21270;SDS011;10795;50.796;3.860;2024-03-02T00:25:58;0.65;;;0.30;;
21270;SDS011;10795;50.796;3.860;2024-03-02T00:28:33;0.68;;;0.30;;
21270;SDS011;10795;50.796;3.860;2024-03-02T00:33:32;0.73;;;0.40;;
21270;SDS011;10795;50.796;3.860;2024-03-02T00:36:05;0.30;;;0.30;;
21270;SDS011;10795;50.796;3.860;2024-03-02T00:38:32;1.75;;;0.40;;
21270;SDS011;10795;50.796;3.860;2024-03-02T00:41:00;0.73;;;0.25;;
21270;SDS011;10795;50.796;3.860;2024-03-02T00:46:15;0.50;;;0.30;;
21270;SDS011;10795;50.796;3.860;2024-03-02T00:48:52;2.15;;;0.50;;
21270;SDS011;10795;50.796;3.860;2024-03-02T00:51:20;1.75;;;0.40;;
21270;SDS011;10795;50.796;3.860;2024-03-02T00:53:53;0.30;;;0.30;;
21270;SDS011;10795;50.796;3.860;2024-03-02T00:56:26;1.70;;;0.45;;
21270;SDS011;10795;50.796;3.860;2024-03-02T00:58:54;0.40;;;0.40;;
21270;SDS011;10795;50.796;3.860;2024-03-02T01:01:20;0.85;;;0.60;;
21270;SDS011;10795;50.796;3.860;2024-03-02T01:03:47;1.35;;;0.85;;
21270;SDS011;10795;50.796;3.860;2024-03-02T01:06:14;1.52;;;0.50;;
21270;SDS011;10795;50.796;3.860;2024-03-02T01:08:43;1.85;;;0.75;;
21270;SDS011;10795;50.796;3.860;2024-03-02T01:11:09;4.03;;;0.90;;
21270;SDS011;10795;50.796;3.860;2024-03-02T01:13:40;1.50;;;0.57;;
21270;SDS011;10795;50.796;3.860;2024-03-02T01:16:05;3.00;;;0.60;;
21270;SDS011;10795;50.796;3.860;2024-03-02T01:18:31;1.27;;;0.50;;
21270;SDS011;10795;50.796;3.860;2024-03-02T01:21:00;0.70;;;0.52;;
21270;SDS011;10795;50.796;3.860;2024-03-02T01:23:26;0.60;;;0.50;;
21270;SDS011;10795;50.796;3.860;2024-03-02T01:25:55;1.92;;;0.55;;
21270;SDS011;10795;50.796;3.860;2024-03-02T01:28:20;2.30;;;0.80;;
21270;SDS011;10795;50.796;3.860;2024-03-02T01:30:51;1.63;;;0.73;;
21270;SDS011;10795;50.796;3.860;2024-03-02T01:33:19;0.82;;;0.60;;
21270;SDS011;10795;50.796;3.860;2024-03-02T01:35:46;1.23;;;0.70;;
21270;SDS011;10795;50.796;3.860;2024-03-02T01:38:14;1.90;;;0.90;;
21270;SDS011;10795;50.796;3.860;2024-03-02T01:40:40;2.30;;;0.98;;
21270;SDS011;10795;50.796;3.860;2024-03-02T01:43:09;1.47;;;0.63;;
21270;SDS011;10795;50.796;3.860;2024-03-02T01:45:40;1.50;;;0.70;;
21270;SDS011;10795;50.796;3.860;2024-03-02T01:48:06;2.33;;;0.85;;
21270;SDS011;10795;50.796;3.860;2024-03-02T01:50:35;2.95;;;0.75;;
21270;SDS011;10795;50.796;3.860;2024-03-02T01:53:01;2.75;;;1.00;;
21270;SDS011;10795;50.796;3.860;2024-03-02T01:55:31;2.33;;;0.90;;
21270;SDS011;10795;50.796;3.860;2024-03-02T01:57:59;0.93;;;0.73;;
21270;SDS011;10795;50.796;3.860;2024-03-02T02:00:30;3.30;;;1.08;;
21270;SDS011;10795;50.796;3.860;2024-03-02T02:02:57;1.33;;;0.80;;
21270;SDS011;10795;50.796;3.860;2024-03-02T02:05:23;2.20;;;0.73;;
21270;SDS011;10795;50.796;3.860;2024-03-02T02:07:51;2.70;;;0.60;;
21270;SDS011;10795;50.796;3.860;2024-03-02T02:10:17;1.70;;;0.80;;
21270;SDS011;10795;50.796;3.860;2024-03-02T02:12:43;1.77;;;0.63;;
21270;SDS011;10795;50.796;3.860;2024-03-02T02:15:28;3.35;;;1.52;;
21270;SDS011;10795;50.796;3.860;2024-03-02T02:17:57;3.35;;;0.85;;
21270;SDS011;10795;50.796;3.860;2024-03-02T02:20:24;1.92;;;0.77;;
21270;SDS011;10795;50.796;3.860;2024-03-02T02:23:04;2.30;;;0.80;;
21270;SDS011;10795;50.796;3.860;2024-03-02T02:25:36;3.55;;;0.60;;
21270;SDS011;10795;50.796;3.860;2024-03-02T02:28:01;1.20;;;0.77;;
21270;SDS011;10795;50.796;3.860;2024-03-02T02:30:28;3.03;;;0.88;;
21270;SDS011;10795;50.796;3.860;2024-03-02T02:32:55;2.90;;;1.00;;
21270;SDS011;10795;50.796;3.860;2024-03-02T02:35:22;4.38;;;1.17;;
21270;SDS011;10795;50.796;3.860;2024-03-02T02:37:50;1.23;;;0.50;;
21270;SDS011;10795;50.796;3.860;2024-03-02T02:40:17;1.45;;;0.82;;
21270;SDS011;10795;50.796;3.860;2024-03-02T02:42:48;3.47;;;0.85;;
21270;SDS011;10795;50.796;3.860;2024-03-02T02:45:14;2.55;;;0.82;;
21270;SDS011;10795;50.796;3.860;2024-03-02T02:47:41;4.88;;;0.80;;
21270;SDS011;10795;50.796;3.860;2024-03-02T02:50:07;2.47;;;0.80;;
21270;SDS011;10795;50.796;3.860;2024-03-02T02:52:35;2.10;;;0.70;;
21270;SDS011;10795;50.796;3.860;2024-03-02T02:55:04;1.75;;;0.80;;
21270;SDS011;10795;50.796;3.860;2024-03-02T02:57:33;2.03;;;0.70;;
21270;SDS011;10795;50.796;3.860;2024-03-02T03:00:13;2.80;;;0.90;;
21270;SDS011;10795;50.796;3.860;2024-03-02T03:02:40;2.38;;;0.63;;
21270;SDS011;10795;50.796;3.860;2024-03-02T03:05:10;1.10;;;0.60;;
21270;SDS011;10795;50.796;3.860;2024-03-02T03:07:37;2.97;;;0.80;;
21270;SDS011;10795;50.796;3.860;2024-03-02T03:10:04;1.60;;;0.70;;
21270;SDS011;10795;50.796;3.860;2024-03-02T03:12:32;3.38;;;0.60;;
21270;SDS011;10795;50.796;3.860;2024-03-02T03:15:01;1.00;;;0.60;;
21270;SDS011;10795;50.796;3.860;2024-03-02T03:17:29;2.97;;;0.75;;
21270;SDS011;10795;50.796;3.860;2024-03-02T03:19:55;1.02;;;0.60;;
21270;SDS011;10795;50.796;3.860;2024-03-02T03:22:21;4.20;;;0.88;;
21270;SDS011;10795;50.796;3.860;2024-03-02T03:24:50;4.38;;;0.60;;
21270;SDS011;10795;50.796;3.860;2024-03-02T03:27:16;3.00;;;0.65;;
21270;SDS011;10795;50.796;3.860;2024-03-02T03:29:41;2.38;;;0.75;;
21270;SDS011;10795;50.796;3.860;2024-03-02T03:32:07;1.55;;;0.70;;
21270;SDS011;10795;50.796;3.860;2024-03-02T03:34:33;2.20;;;0.70;;
21270;SDS011;10795;50.796;3.860;2024-03-02T03:37:00;1.38;;;0.70;;
21270;SDS011;10795;50.796;3.860;2024-03-02T03:39:25;4.55;;;0.80;;
21270;SDS011;10795;50.796;3.860;2024-03-02T03:41:53;3.80;;;0.70;;
21270;SDS011;10795;50.796;3.860;2024-03-02T03:44:22;3.38;;;0.82;;
21270;SDS011;10795;50.796;3.860;2024-03-02T03:46:47;2.53;;;0.70;;
21270;SDS011;10795;50.796;3.860;2024-03-02T03:49:13;1.05;;;0.57;;
21270;SDS011;10795;50.796;3.860;2024-03-02T03:51:39;2.63;;;0.80;;
21270;SDS011;10795;50.796;3.860;2024-03-02T03:54:07;1.73;;;0.80;;
21270;SDS011;10795;50.796;3.860;2024-03-02T03:56:33;1.33;;;0.63;;
21270;SDS011;10795;50.796;3.860;2024-03-02T03:58:59;3.45;;;0.77;;
21270;SDS011;10795;50.796;3.860;2024-03-02T04:01:27;5.10;;;0.50;;
21270;SDS011;10795;50.796;3.860;2024-03-02T04:03:53;2.35;;;0.77;;
21270;SDS011;10795;50.796;3.860;2024-03-02T04:06:21;5.07;;;1.05;;
21270;SDS011;10795;50.796;3.860;2024-03-02T04:08:47;7.28;;;0.85;;
21270;SDS011;10795;50.796;3.860;2024-03-02T04:11:15;3.78;;;0.90;;
21270;SDS011;10795;50.796;3.860;2024-03-02T04:13:41;4.43;;;0.82;;
21270;SDS011;10795;50.796;3.860;2024-03-02T04:16:10;1.90;;;0.75;;
21270;SDS011;10795;50.796;3.860;2024-03-02T04:18:35;2.88;;;0.90;;
21270;SDS011;10795;50.796;3.860;2024-03-02T04:21:04;3.43;;;1.20;;
21270;SDS011;10795;50.796;3.860;2024-03-02T04:23:33;2.55;;;1.20;;
21270;SDS011;10795;50.796;3.860;2024-03-02T04:25:58;4.03;;;0.88;;
21270;SDS011;10795;50.796;3.860;2024-03-02T04:28:24;3.80;;;0.80;;
21270;SDS011;10795;50.796;3.860;2024-03-02T04:30:53;2.85;;;0.88;;
21270;SDS011;10795;50.796;3.860;2024-03-02T04:33:18;1.98;;;0.63;;
21270;SDS011;10795;50.796;3.860;2024-03-02T04:35:44;1.55;;;0.70;;
21270;SDS011;10795;50.796;3.860;2024-03-02T04:38:12;4.55;;;0.70;;
21270;SDS011;10795;50.796;3.860;2024-03-02T04:40:41;4.30;;;0.60;;
21270;SDS011;10795;50.796;3.860;2024-03-02T04:43:09;2.17;;;0.68;;
21270;SDS011;10795;50.796;3.860;2024-03-02T04:45:37;2.65;;;0.77;;
21270;SDS011;10795;50.796;3.860;2024-03-02T04:48:04;3.30;;;0.80;;
21270;SDS011;10795;50.796;3.860;2024-03-02T04:50:32;5.72;;;0.90;;
21270;SDS011;10795;50.796;3.860;2024-03-02T04:53:01;4.38;;;0.90;;
21270;SDS011;10795;50.796;3.860;2024-03-02T04:55:26;6.22;;;0.90;;
21270;SDS011;10795;50.796;3.860;2024-03-02T04:57:54;1.48;;;0.75;;
21270;SDS011;10795;50.796;3.860;2024-03-02T05:00:21;3.45;;;0.63;;
21270;SDS011;10795;50.796;3.860;2024-03-02T05:02:47;6.07;;;0.80;;
21270;SDS011;10795;50.796;3.860;2024-03-02T05:05:12;2.90;;;0.60;;
21270;SDS011;10795;50.796;3.860;2024-03-02T05:07:43;1.73;;;0.45;;
21270;SDS011;10795;50.796;3.860;2024-03-02T05:10:09;2.05;;;0.65;;
21270;SDS011;10795;50.796;3.860;2024-03-02T05:12:37;1.50;;;0.60;;
21270;SDS011;10795;50.796;3.860;2024-03-02T05:15:12;4.68;;;0.82;;
21270;SDS011;10795;50.796;3.860;2024-03-02T05:17:43;2.20;;;0.75;;
21270;SDS011;10795;50.796;3.860;2024-03-02T05:20:12;2.95;;;0.95;;
21270;SDS011;10795;50.796;3.860;2024-03-02T05:22:39;2.65;;;0.70;;
21270;SDS011;10795;50.796;3.860;2024-03-02T05:25:08;3.05;;;0.63;;
21270;SDS011;10795;50.796;3.860;2024-03-02T05:27:35;5.10;;;0.90;;
21270;SDS011;10795;50.796;3.860;2024-03-02T05:30:01;5.00;;;0.85;;
21270;SDS011;10795;50.796;3.860;2024-03-02T05:32:31;6.43;;;0.68;;
21270;SDS011;10795;50.796;3.860;2024-03-02T05:34:58;2.75;;;0.98;;
21270;SDS011;10795;50.796;3.860;2024-03-02T05:37:23;1.40;;;0.60;;
21270;SDS011;10795;50.796;3.860;2024-03-02T05:39:54;5.35;;;1.00;;
21270;SDS011;10795;50.796;3.860;2024-03-02T05:43:30;2.15;;;0.95;;
21270;SDS011;10795;50.796;3.860;2024-03-02T05:45:55;4.90;;;0.88;;
21270;SDS011;10795;50.796;3.860;2024-03-02T05:48:21;3.25;;;0.90;;
21270;SDS011;10795;50.796;3.860;2024-03-02T05:50:49;2.28;;;0.82;;
21270;SDS011;10795;50.796;3.860;2024-03-02T05:53:15;8.65;;;1.20;;
21270;SDS011;10795;50.796;3.860;2024-03-02T05:55:43;3.10;;;0.90;;
21270;SDS011;10795;50.796;3.860;2024-03-02T05:58:14;7.00;;;1.00;;
21270;SDS011;10795;50.796;3.860;2024-03-02T06:01:01;4.15;;;1.58;;
21270;SDS011;10795;50.796;3.860;2024-03-02T06:03:30;2.33;;;0.68;;
21270;SDS011;10795;50.796;3.860;2024-03-02T06:05:58;6.50;;;1.38;;
21270;SDS011;10795;50.796;3.860;2024-03-02T06:08:26;9.90;;;1.10;;
21270;SDS011;10795;50.796;3.860;2024-03-02T06:10:52;3.92;;;1.00;;
21270;SDS011;10795;50.796;3.860;2024-03-02T06:13:21;5.75;;;0.85;;
21270;SDS011;10795;50.796;3.860;2024-03-02T06:15:51;4.57;;;0.88;;
21270;SDS011;10795;50.796;3.860;2024-03-02T06:18:17;4.68;;;1.23;;
21270;SDS011;10795;50.796;3.860;2024-03-02T06:20:45;8.50;;;1.88;;
21270;SDS011;10795;50.796;3.860;2024-03-02T06:23:11;3.25;;;0.93;;
21270;SDS011;10795;50.796;3.860;2024-03-02T06:25:40;3.72;;;0.80;;
21270;SDS011;10795;50.796;3.860;2024-03-02T06:28:05;3.65;;;0.70;;
21270;SDS011;10795;50.796;3.860;2024-03-02T06:30:34;3.53;;;0.85;;
21270;SDS011;10795;50.796;3.860;2024-03-02T06:33:00;6.80;;;1.02;;
21270;SDS011;10795;50.796;3.860;2024-03-02T06:35:29;4.75;;;0.93;;
21270;SDS011;10795;50.796;3.860;2024-03-02T06:37:57;8.57;;;1.23;;
21270;SDS011;10795;50.796;3.860;2024-03-02T06:40:23;5.35;;;0.80;;
21270;SDS011;10795;50.796;3.860;2024-03-02T06:42:48;3.70;;;0.68;;
21270;SDS011;10795;50.796;3.860;2024-03-02T06:45:14;6.05;;;1.10;;
21270;SDS011;10795;50.796;3.860;2024-03-02T06:47:40;5.45;;;1.23;;
21270;SDS011;10795;50.796;3.860;2024-03-02T06:50:06;5.00;;;1.00;;
21270;SDS011;10795;50.796;3.860;2024-03-02T06:52:34;8.05;;;1.00;;
21270;SDS011;10795;50.796;3.860;2024-03-02T06:55:01;6.77;;;0.70;;
21270;SDS011;10795;50.796;3.860;2024-03-02T06:57:27;5.72;;;1.00;;
21270;SDS011;10795;50.796;3.860;2024-03-02T06:59:53;7.18;;;1.17;;
21270;SDS011;10795;50.796;3.860;2024-03-02T07:02:23;5.28;;;0.90;;
21270;SDS011;10795;50.796;3.860;2024-03-02T07:04:52;3.38;;;1.00;;
21270;SDS011;10795;50.796;3.860;2024-03-02T07:07:18;4.53;;;1.20;;
21270;SDS011;10795;50.796;3.860;2024-03-02T07:09:44;7.10;;;0.80;;
21270;SDS011;10795;50.796;3.860;2024-03-02T07:12:13;9.32;;;1.30;;
21270;SDS011;10795;50.796;3.860;2024-03-02T07:14:42;6.00;;;1.50;;
21270;SDS011;10795;50.796;3.860;2024-03-02T07:17:26;4.65;;;1.00;;
21270;SDS011;10795;50.796;3.860;2024-03-02T07:19:54;4.90;;;1.13;;
21270;SDS011;10795;50.796;3.860;2024-03-02T07:22:22;5.90;;;1.00;;
21270;SDS011;10795;50.796;3.860;2024-03-02T07:24:48;7.13;;;1.25;;
21270;SDS011;10795;50.796;3.860;2024-03-02T07:27:16;4.82;;;1.30;;
21270;SDS011;10795;50.796;3.860;2024-03-02T07:29:42;2.63;;;0.80;;
21270;SDS011;10795;50.796;3.860;2024-03-02T07:32:11;7.60;;;1.33;;
21270;SDS011;10795;50.796;3.860;2024-03-02T07:34:37;6.93;;;1.20;;
21270;SDS011;10795;50.796;3.860;2024-03-02T07:37:04;5.68;;;1.70;;
21270;SDS011;10795;50.796;3.860;2024-03-02T07:39:35;11.30;;;3.08;;
21270;SDS011;10795;50.796;3.860;2024-03-02T07:42:01;10.80;;;2.58;;
21270;SDS011;10795;50.796;3.860;2024-03-02T07:44:27;8.77;;;1.70;;
21270;SDS011;10795;50.796;3.860;2024-03-02T07:46:53;4.45;;;1.48;;
21270;SDS011;10795;50.796;3.860;2024-03-02T07:49:19;7.90;;;2.03;;
21270;SDS011;10795;50.796;3.860;2024-03-02T07:51:47;6.65;;;1.55;;
21270;SDS011;10795;50.796;3.860;2024-03-02T07:54:13;7.25;;;1.42;;
21270;SDS011;10795;50.796;3.860;2024-03-02T07:56:45;6.30;;;1.40;;
21270;SDS011;10795;50.796;3.860;2024-03-02T07:59:14;5.33;;;1.37;;
21270;SDS011;10795;50.796;3.860;2024-03-02T08:01:48;5.25;;;1.20;;
21270;SDS011;10795;50.796;3.860;2024-03-02T08:04:15;5.95;;;1.88;;
21270;SDS011;10795;50.796;3.860;2024-03-02T08:06:44;4.20;;;1.10;;
21270;SDS011;10795;50.796;3.860;2024-03-02T08:09:10;7.13;;;1.63;;
21270;SDS011;10795;50.796;3.860;2024-03-02T08:11:36;6.65;;;1.20;;
21270;SDS011;10795;50.796;3.860;2024-03-02T08:14:13;4.55;;;1.27;;
21270;SDS011;10795;50.796;3.860;2024-03-02T08:16:38;8.48;;;0.80;;
21270;SDS011;10795;50.796;3.860;2024-03-02T08:19:05;3.90;;;0.82;;
21270;SDS011;10795;50.796;3.860;2024-03-02T08:21:31;6.03;;;1.20;;
21270;SDS011;10795;50.796;3.860;2024-03-02T08:24:00;5.50;;;1.15;;
21270;SDS011;10795;50.796;3.860;2024-03-02T08:26:29;4.15;;;0.80;;
21270;SDS011;10795;50.796;3.860;2024-03-02T08:28:59;10.77;;;1.83;;
21270;SDS011;10795;50.796;3.860;2024-03-02T08:31:34;1.98;;;0.90;;
21270;SDS011;10795;50.796;3.860;2024-03-02T08:34:03;5.47;;;0.85;;
21270;SDS011;10795;50.796;3.860;2024-03-02T08:36:29;4.47;;;1.00;;
21270;SDS011;10795;50.796;3.860;2024-03-02T08:38:58;5.70;;;1.15;;
21270;SDS011;10795;50.796;3.860;2024-03-02T08:41:24;8.88;;;1.00;;
21270;SDS011;10795;50.796;3.860;2024-03-02T08:43:50;6.65;;;1.20;;
21270;SDS011;10795;50.796;3.860;2024-03-02T08:46:16;5.05;;;1.15;;
21270;SDS011;10795;50.796;3.860;2024-03-02T08:48:42;8.98;;;1.20;;
21270;SDS011;10795;50.796;3.860;2024-03-02T08:51:07;8.07;;;1.23;;
21270;SDS011;10795;50.796;3.860;2024-03-02T08:53:35;4.53;;;1.20;;
21270;SDS011;10795;50.796;3.860;2024-03-02T08:56:01;6.38;;;1.60;;
21270;SDS011;10795;50.796;3.860;2024-03-02T08:58:29;9.23;;;1.90;;
21270;SDS011;10795;50.796;3.860;2024-03-02T09:00:57;6.32;;;1.50;;
21270;SDS011;10795;50.796;3.860;2024-03-02T09:03:23;6.78;;;1.10;;
21270;SDS011;10795;50.796;3.860;2024-03-02T09:05:49;5.82;;;1.48;;
21270;SDS011;10795;50.796;3.860;2024-03-02T09:08:15;5.30;;;1.40;;
21270;SDS011;10795;50.796;3.860;2024-03-02T09:10:43;9.40;;;1.33;;
21270;SDS011;10795;50.796;3.860;2024-03-02T09:13:14;10.68;;;1.58;;
21270;SDS011;10795;50.796;3.860;2024-03-02T09:15:40;7.10;;;1.58;;
21270;SDS011;10795;50.796;3.860;2024-03-02T09:18:05;8.82;;;1.40;;
21270;SDS011;10795;50.796;3.860;2024-03-02T09:20:32;6.72;;;1.27;;
21270;SDS011;10795;50.796;3.860;2024-03-02T09:23:17;3.33;;;1.20;;
21270;SDS011;10795;50.796;3.860;2024-03-02T09:25:43;10.85;;;1.67;;
21270;SDS011;10795;50.796;3.860;2024-03-02T09:28:16;5.95;;;1.60;;
21270;SDS011;10795;50.796;3.860;2024-03-02T09:30:42;7.35;;;1.85;;
21270;SDS011;10795;50.796;3.860;2024-03-02T09:33:08;5.50;;;1.15;;
21270;SDS011;10795;50.796;3.860;2024-03-02T09:35:34;7.20;;;1.65;;
21270;SDS011;10795;50.796;3.860;2024-03-02T09:38:02;4.65;;;1.33;;
21270;SDS011;10795;50.796;3.860;2024-03-02T09:40:31;5.45;;;1.15;;
21270;SDS011;10795;50.796;3.860;2024-03-02T09:42:57;5.80;;;1.23;;
21270;SDS011;10795;50.796;3.860;2024-03-02T09:45:26;6.32;;;1.08;;
21270;SDS011;10795;50.796;3.860;2024-03-02T09:47:56;6.97;;;1.02;;
21270;SDS011;10795;50.796;3.860;2024-03-02T09:50:22;4.47;;;1.13;;
21270;SDS011;10795;50.796;3.860;2024-03-02T09:52:48;5.88;;;1.55;;
21270;SDS011;10795;50.796;3.860;2024-03-02T09:55:20;4.47;;;1.00;;
21270;SDS011;10795;50.796;3.860;2024-03-02T09:57:46;10.30;;;1.67;;
21270;SDS011;10795;50.796;3.860;2024-03-02T10:00:16;5.75;;;1.20;;
21270;SDS011;10795;50.796;3.860;2024-03-02T10:02:47;4.00;;;0.98;;
21270;SDS011;10795;50.796;3.860;2024-03-02T10:05:23;8.02;;;1.23;;
21270;SDS011;10795;50.796;3.860;2024-03-02T10:08:08;5.65;;;1.70;;
21270;SDS011;10795;50.796;3.860;2024-03-02T10:10:37;3.20;;;0.85;;
21270;SDS011;10795;50.796;3.860;2024-03-02T10:13:10;5.78;;;1.50;;
21270;SDS011;10795;50.796;3.860;2024-03-02T10:15:37;6.22;;;1.30;;
21270;SDS011;10795;50.796;3.860;2024-03-02T10:18:09;7.05;;;1.08;;
21270;SDS011;10795;50.796;3.860;2024-03-02T10:20:38;7.50;;;1.42;;
21270;SDS011;10795;50.796;3.860;2024-03-02T10:23:13;7.80;;;1.38;;
21270;SDS011;10795;50.796;3.860;2024-03-02T10:25:41;9.88;;;1.27;;
21270;SDS011;10795;50.796;3.860;2024-03-02T10:28:10;8.83;;;1.33;;
21270;SDS011;10795;50.796;3.860;2024-03-02T10:30:36;7.15;;;1.50;;
21270;SDS011;10795;50.796;3.860;2024-03-02T10:33:02;8.15;;;1.00;;
21270;SDS011;10795;50.796;3.860;2024-03-02T10:35:31;11.15;;;1.45;;
21270;SDS011;10795;50.796;3.860;2024-03-02T10:41:47;7.30;;;1.45;;
21270;SDS011;10795;50.796;3.860;2024-03-02T10:44:15;3.28;;;1.35;;
21270;SDS011;10795;50.796;3.860;2024-03-02T10:47:02;7.95;;;1.10;;
21270;SDS011;10795;50.796;3.860;2024-03-02T10:49:35;6.63;;;1.30;;
21270;SDS011;10795;50.796;3.860;2024-03-02T10:52:07;5.78;;;2.03;;
21270;SDS011;10795;50.796;3.860;2024-03-02T10:54:34;6.13;;;1.00;;
21270;SDS011;10795;50.796;3.860;2024-03-02T10:57:05;9.38;;;1.23;;
21270;SDS011;10795;50.796;3.860;2024-03-02T10:59:37;9.15;;;1.00;;
21270;SDS011;10795;50.796;3.860;2024-03-02T11:02:17;11.57;;;1.67;;
21270;SDS011;10795;50.796;3.860;2024-03-02T11:04:46;9.48;;;1.63;;
21270;SDS011;10795;50.796;3.860;2024-03-02T11:07:17;4.90;;;1.00;;
21270;SDS011;10795;50.796;3.860;2024-03-02T11:09:51;7.00;;;1.08;;
21270;SDS011;10795;50.796;3.860;2024-03-02T11:12:43;5.85;;;1.05;;
21270;SDS011;10795;50.796;3.860;2024-03-02T11:15:18;10.15;;;1.35;;
21270;SDS011;10795;50.796;3.860;2024-03-02T11:17:47;6.70;;;1.13;;
21270;SDS011;10795;50.796;3.860;2024-03-02T11:20:19;8.82;;;1.52;;
21270;SDS011;10795;50.796;3.860;2024-03-02T11:22:50;6.97;;;1.08;;
21270;SDS011;10795;50.796;3.860;2024-03-02T11:25:25;7.00;;;1.20;;
21270;SDS011;10795;50.796;3.860;2024-03-02T11:32:59;7.03;;;1.50;;
21270;SDS011;10795;50.796;3.860;2024-03-02T11:35:30;8.27;;;1.00;;
21270;SDS011;10795;50.796;3.860;2024-03-02T11:37:56;8.03;;;1.00;;
21270;SDS011;10795;50.796;3.860;2024-03-02T11:42:54;7.75;;;0.95;;
21270;SDS011;10795;50.796;3.860;2024-03-02T11:45:27;8.18;;;0.98;;
21270;SDS011;10795;50.796;3.860;2024-03-02T11:47:54;9.50;;;1.27;;
21270;SDS011;10795;50.796;3.860;2024-03-02T11:50:30;7.00;;;1.50;;
21270;SDS011;10795;50.796;3.860;2024-03-02T11:52:58;4.55;;;1.30;;
21270;SDS011;10795;50.796;3.860;2024-03-02T11:55:25;6.03;;;1.38;;
21270;SDS011;10795;50.796;3.860;2024-03-02T11:57:59;5.35;;;0.82;;
21270;SDS011;10795;50.796;3.860;2024-03-02T12:00:28;5.57;;;1.10;;
21270;SDS011;10795;50.796;3.860;2024-03-02T12:03:01;3.67;;;1.00;;
21270;SDS011;10795;50.796;3.860;2024-03-02T12:05:31;8.65;;;1.02;;
21270;SDS011;10795;50.796;3.860;2024-03-02T12:08:01;6.97;;;1.33;;
21270;SDS011;10795;50.796;3.860;2024-03-02T12:10:28;6.82;;;1.30;;
21270;SDS011;10795;50.796;3.860;2024-03-02T12:12:59;11.77;;;1.02;;
21270;SDS011;10795;50.796;3.860;2024-03-02T12:15:29;8.82;;;1.20;;
21270;SDS011;10795;50.796;3.860;2024-03-02T12:17:59;6.40;;;1.20;;
21270;SDS011;10795;50.796;3.860;2024-03-02T12:20:27;4.90;;;1.40;;
21270;SDS011;10795;50.796;3.860;2024-03-02T12:22:55;6.10;;;1.77;;
21270;SDS011;10795;50.796;3.860;2024-03-02T12:25:24;4.20;;;1.13;;
21270;SDS011;10795;50.796;3.860;2024-03-02T12:27:53;3.53;;;0.95;;
21270;SDS011;10795;50.796;3.860;2024-03-02T12:30:21;5.70;;;1.17;;
21270;SDS011;10795;50.796;3.860;2024-03-02T12:32:47;6.13;;;0.98;;
21270;SDS011;10795;50.796;3.860;2024-03-02T12:35:14;8.07;;;1.20;;
21270;SDS011;10795;50.796;3.860;2024-03-02T12:37:47;6.63;;;1.42;;
21270;SDS011;10795;50.796;3.860;2024-03-02T12:40:14;7.80;;;1.63;;
21270;SDS011;10795;50.796;3.860;2024-03-02T12:42:43;7.78;;;1.35;;
21270;SDS011;10795;50.796;3.860;2024-03-02T12:45:12;7.63;;;1.33;;
21270;SDS011;10795;50.796;3.860;2024-03-02T12:47:39;4.82;;;1.02;;
21270;SDS011;10795;50.796;3.860;2024-03-02T12:50:08;7.97;;;1.47;;
21270;SDS011;10795;50.796;3.860;2024-03-02T12:52:35;7.30;;;0.88;;
21270;SDS011;10795;50.796;3.860;2024-03-02T12:55:02;5.88;;;1.10;;
21270;SDS011;10795;50.796;3.860;2024-03-02T12:57:33;5.65;;;0.80;;
21270;SDS011;10795;50.796;3.860;2024-03-02T13:00:03;5.47;;;1.00;;
21270;SDS011;10795;50.796;3.860;2024-03-02T13:02:41;2.65;;;0.90;;
21270;SDS011;10795;50.796;3.860;2024-03-02T13:05:07;6.30;;;1.10;;
21270;SDS011;10795;50.796;3.860;2024-03-02T13:07:36;3.95;;;0.85;;
21270;SDS011;10795;50.796;3.860;2024-03-02T13:10:06;6.18;;;1.25;;
21270;SDS011;10795;50.796;3.860;2024-03-02T13:12:34;3.73;;;1.07;;
21270;SDS011;10795;50.796;3.860;2024-03-02T13:15:02;4.65;;;1.10;;
21270;SDS011;10795;50.796;3.860;2024-03-02T13:17:31;2.70;;;0.70;;
21270;SDS011;10795;50.796;3.860;2024-03-02T13:19:59;2.58;;;0.95;;
21270;SDS011;10795;50.796;3.860;2024-03-02T13:22:27;3.83;;;0.80;;
21270;SDS011;10795;50.796;3.860;2024-03-02T13:24:53;4.20;;;0.80;;
21270;SDS011;10795;50.796;3.860;2024-03-02T13:27:19;4.30;;;0.85;;
21270;SDS011;10795;50.796;3.860;2024-03-02T13:29:48;5.20;;;1.05;;
21270;SDS011;10795;50.796;3.860;2024-03-02T13:32:14;5.75;;;1.20;;
21270;SDS011;10795;50.796;3.860;2024-03-02T13:34:42;5.32;;;1.17;;
21270;SDS011;10795;50.796;3.860;2024-03-02T13:37:11;6.13;;;1.40;;
21270;SDS011;10795;50.796;3.860;2024-03-02T13:39:37;10.63;;;1.90;;
21270;SDS011;10795;50.796;3.860;2024-03-02T13:42:10;3.55;;;1.10;;
21270;SDS011;10795;50.796;3.860;2024-03-02T13:44:39;2.80;;;1.08;;
21270;SDS011;10795;50.796;3.860;2024-03-02T13:47:12;4.30;;;1.02;;
21270;SDS011;10795;50.796;3.860;2024-03-02T13:49:38;4.07;;;1.48;;
21270;SDS011;10795;50.796;3.860;2024-03-02T13:52:08;4.55;;;1.00;;
21270;SDS011;10795;50.796;3.860;2024-03-02T13:54:42;4.60;;;0.90;;
21270;SDS011;10795;50.796;3.860;2024-03-02T13:57:11;4.57;;;0.80;;
21270;SDS011;10795;50.796;3.860;2024-03-02T13:59:38;5.07;;;0.98;;
21270;SDS011;10795;50.796;3.860;2024-03-02T14:02:05;3.75;;;1.13;;
21270;SDS011;10795;50.796;3.860;2024-03-02T14:04:34;5.65;;;0.80;;
21270;SDS011;10795;50.796;3.860;2024-03-02T14:07:06;4.95;;;0.93;;
21270;SDS011;10795;50.796;3.860;2024-03-02T14:09:34;4.60;;;1.00;;
21270;SDS011;10795;50.796;3.860;2024-03-02T14:12:03;3.40;;;0.90;;
21270;SDS011;10795;50.796;3.860;2024-03-02T14:14:33;4.63;;;1.05;;
21270;SDS011;10795;50.796;3.860;2024-03-02T14:17:03;4.45;;;0.80;;
21270;SDS011;10795;50.796;3.860;2024-03-02T14:19:33;6.30;;;1.00;;
21270;SDS011;10795;50.796;3.860;2024-03-02T14:22:00;4.90;;;1.60;;
21270;SDS011;10795;50.796;3.860;2024-03-02T14:24:26;6.35;;;1.08;;
21270;SDS011;10795;50.796;3.860;2024-03-02T14:26:54;5.13;;;1.70;;
21270;SDS011;10795;50.796;3.860;2024-03-02T14:29:22;2.75;;;1.20;;
21270;SDS011;10795;50.796;3.860;2024-03-02T14:31:47;5.60;;;1.30;;
21270;SDS011;10795;50.796;3.860;2024-03-02T14:34:17;5.25;;;1.27;;
21270;SDS011;10795;50.796;3.860;2024-03-02T14:36:43;2.00;;;0.80;;
21270;SDS011;10795;50.796;3.860;2024-03-02T14:39:11;3.05;;;0.90;;
21270;SDS011;10795;50.796;3.860;2024-03-02T14:41:37;1.42;;;0.60;;
21270;SDS011;10795;50.796;3.860;2024-03-02T14:44:03;2.92;;;0.73;;
21270;SDS011;10795;50.796;3.860;2024-03-02T14:46:29;3.42;;;0.70;;
21270;SDS011;10795;50.796;3.860;2024-03-02T14:48:55;3.50;;;0.70;;
21270;SDS011;10795;50.796;3.860;2024-03-02T14:51:21;2.88;;;0.90;;
21270;SDS011;10795;50.796;3.860;2024-03-02T14:53:47;4.05;;;0.85;;
21270;SDS011;10795;50.796;3.860;2024-03-02T14:56:13;3.10;;;0.95;;
21270;SDS011;10795;50.796;3.860;2024-03-02T14:58:41;5.32;;;1.30;;
21270;SDS011;10795;50.796;3.860;2024-03-02T15:01:07;3.35;;;0.90;;
21270;SDS011;10795;50.796;3.860;2024-03-02T15:03:34;2.30;;;0.80;;
21270;SDS011;10795;50.796;3.860;2024-03-02T15:06:02;5.55;;;0.98;;
21270;SDS011;10795;50.796;3.860;2024-03-02T15:08:32;4.57;;;0.90;;
21270;SDS011;10795;50.796;3.860;2024-03-02T15:11:01;1.67;;;0.60;;
21270;SDS011;10795;50.796;3.860;2024-03-02T15:13:29;1.92;;;0.77;;